04:58
Airports
History
Links
Donate
Help keep this website running!
PayPal
Bitcoin
This page is community maintained. The information is intended for PC simulator navigation or reference.
Always use approved charts for navigation.
5B3
Danielson
Danielson (5B3)
Killingly, Connecticut, United States (6241)
(U)
Lat/Lng:41° 49' 11.07" N / 71° 54' 3.47" W
41.819741 / -71.900963
Elevation:238'ft / 73mMSL
ID / ICAO:5B3
Runways:1
Longest:13-31
Asphalt 821m / 2,693ft
Nearby Weather04:52 GMT 2017-09-21
Nearby weather at KIJD, Windham located 15.3 nautical miles from 5B3
Altimeter: 29.89
Visibility: 10.0 statute miles
Wind: 13 knots (from 020°)
Temp: 23°c / 73°f
Humidity: 73.5%

METAR: KIJD 210452Z AUTO 02013G19KT 10SM BKN033 23/18 A2989 RMK AO2 SLP119 T02330183 402440200

(Powered by phpweather)
Nearby VORs <50NM
Nearby NDBs
Runway 13 / 31
Dimensions:820.8 x 22.9m 2693' x 75'ft
Surface:Asphalt
Edge Lights:Medium intensity
Runway 13 [A]Runway 31 [B]
Heading:119°TH 299°TH
Lat:
Lng:
41° 49' 17.66"N
71° 54' 18.96"W
41° 49' 4.47"N
71° 53' 47.97"W
User Notes and Comments
41° 49' 11.07" N / 71° 54' 3.47" W
Distance To
Airport ID:
Nearby Airports
(U) Danielson 0.0 NM
KLZD NW 323°
(R) Yankee Airstrip 6.2 NM
CT13 NE 44°
(R) Riconn 10.4 NM
RI11 SE 144°
4 Eastford 10.6 NM
5CT0 NW 306°
(U) Toutant 12.3 NM
C44 NW 319°
(U) Windham 15.3 NM
KIJD ( WX ) WSW 250°
(R) Spruce 15.7 NM
CT43 S 185°
VFR Chart
Flight Planning at SkyVector.com